sensor_id;sensor_type;location;lat;lon;timestamp;temperature;humidity
20487;DHT22;10402;49.012;8.370;2022-11-20T00:00:42;6.60;98.70
20487;DHT22;10402;49.012;8.370;2022-11-20T00:03:08;6.60;98.50
20487;DHT22;10402;49.012;8.370;2022-11-20T00:05:33;6.50;98.50
20487;DHT22;10402;49.012;8.370;2022-11-20T00:07:59;6.50;98.70
20487;DHT22;10402;49.012;8.370;2022-11-20T00:10:24;6.50;98.70
20487;DHT22;10402;49.012;8.370;2022-11-20T00:12:50;6.60;98.70
20487;DHT22;10402;49.012;8.370;2022-11-20T00:15:16;6.60;98.70
20487;DHT22;10402;49.012;8.370;2022-11-20T00:17:41;6.60;98.50
20487;DHT22;10402;49.012;8.370;2022-11-20T00:20:07;6.60;98.60
20487;DHT22;10402;49.012;8.370;2022-11-20T00:22:33;6.60;98.70
20487;DHT22;10402;49.012;8.370;2022-11-20T00:24:58;6.60;98.70
20487;DHT22;10402;49.012;8.370;2022-11-20T00:27:24;6.70;98.70
20487;DHT22;10402;49.012;8.370;2022-11-20T00:29:49;6.70;98.90
20487;DHT22;10402;49.012;8.370;2022-11-20T00:32:15;6.70;98.50
20487;DHT22;10402;49.012;8.370;2022-11-20T00:34:40;6.70;98.50
20487;DHT22;10402;49.012;8.370;2022-11-20T00:37:06;6.60;98.40
20487;DHT22;10402;49.012;8.370;2022-11-20T00:39:31;6.60;98.50
20487;DHT22;10402;49.012;8.370;2022-11-20T00:41:57;6.50;98.50
20487;DHT22;10402;49.012;8.370;2022-11-20T00:44:22;6.50;98.60
20487;DHT22;10402;49.012;8.370;2022-11-20T00:46:48;6.50;98.60
20487;DHT22;10402;49.012;8.370;2022-11-20T00:49:13;6.60;98.70
20487;DHT22;10402;49.012;8.370;2022-11-20T00:51:39;6.60;98.70
20487;DHT22;10402;49.012;8.370;2022-11-20T00:54:04;6.70;98.70
20487;DHT22;10402;49.012;8.370;2022-11-20T00:56:30;6.70;98.70
20487;DHT22;10402;49.012;8.370;2022-11-20T00:58:59;6.70;98.70
20487;DHT22;10402;49.012;8.370;2022-11-20T01:01:26;6.80;98.70
20487;DHT22;10402;49.012;8.370;2022-11-20T01:03:53;6.80;98.70
20487;DHT22;10402;49.012;8.370;2022-11-20T01:06:30;6.80;98.60
20487;DHT22;10402;49.012;8.370;2022-11-20T01:08:58;6.90;98.60
20487;DHT22;10402;49.012;8.370;2022-11-20T01:11:29;6.90;98.70
20487;DHT22;10402;49.012;8.370;2022-11-20T01:13:57;7.00;98.70
20487;DHT22;10402;49.012;8.370;2022-11-20T01:16:34;7.00;98.60
20487;DHT22;10402;49.012;8.370;2022-11-20T01:19:03;7.00;98.60
20487;DHT22;10402;49.012;8.370;2022-11-20T01:21:31;7.10;98.60
20487;DHT22;10402;49.012;8.370;2022-11-20T01:23:58;7.10;98.50
20487;DHT22;10402;49.012;8.370;2022-11-20T01:26:26;7.10;98.50
20487;DHT22;10402;49.012;8.370;2022-11-20T01:28:52;7.10;98.60
20487;DHT22;10402;49.012;8.370;2022-11-20T01:33:53;7.20;98.60
20487;DHT22;10402;49.012;8.370;2022-11-20T01:36:21;7.10;98.50
20487;DHT22;10402;49.012;8.370;2022-11-20T01:38:47;7.20;98.60
20487;DHT22;10402;49.012;8.370;2022-11-20T01:41:14;7.20;98.60
20487;DHT22;10402;49.012;8.370;2022-11-20T01:44:00;7.20;98.70
20487;DHT22;10402;49.012;8.370;2022-11-20T01:46:27;7.20;98.60
20487;DHT22;10402;49.012;8.370;2022-11-20T01:51:43;7.20;98.60
20487;DHT22;10402;49.012;8.370;2022-11-20T01:54:18;7.30;98.70
20487;DHT22;10402;49.012;8.370;2022-11-20T01:56:45;7.40;98.80
20487;DHT22;10402;49.012;8.370;2022-11-20T01:59:15;7.40;98.70
20487;DHT22;10402;49.012;8.370;2022-11-20T02:01:42;7.40;98.70
20487;DHT22;10402;49.012;8.370;2022-11-20T02:04:08;7.40;98.70
20487;DHT22;10402;49.012;8.370;2022-11-20T02:06:38;7.50;98.80
20487;DHT22;10402;49.012;8.370;2022-11-20T02:09:05;7.50;98.70
20487;DHT22;10402;49.012;8.370;2022-11-20T02:11:31;7.50;98.70
20487;DHT22;10402;49.012;8.370;2022-11-20T02:13:57;7.60;98.70
20487;DHT22;10402;49.012;8.370;2022-11-20T02:16:29;7.60;98.70
20487;DHT22;10402;49.012;8.370;2022-11-20T02:18:57;7.60;98.70
20487;DHT22;10402;49.012;8.370;2022-11-20T02:24:03;7.70;98.70
20487;DHT22;10402;49.012;8.370;2022-11-20T02:26:31;7.70;98.80
20487;DHT22;10402;49.012;8.370;2022-11-20T02:28:59;7.70;98.80
20487;DHT22;10402;49.012;8.370;2022-11-20T02:31:25;7.80;98.80
20487;DHT22;10402;49.012;8.370;2022-11-20T02:33:55;7.80;98.90
20487;DHT22;10402;49.012;8.370;2022-11-20T02:36:21;7.80;98.80
20487;DHT22;10402;49.012;8.370;2022-11-20T02:38:48;7.90;98.90
20487;DHT22;10402;49.012;8.370;2022-11-20T02:41:14;8.00;98.80
20487;DHT22;10402;49.012;8.370;2022-11-20T02:43:40;8.00;98.80
20487;DHT22;10402;49.012;8.370;2022-11-20T02:46:07;8.00;98.70
20487;DHT22;10402;49.012;8.370;2022-11-20T02:48:33;8.10;98.70
20487;DHT22;10402;49.012;8.370;2022-11-20T02:50:58;8.10;98.60
20487;DHT22;10402;49.012;8.370;2022-11-20T02:53:24;8.10;98.60
20487;DHT22;10402;49.012;8.370;2022-11-20T02:55:49;8.20;99.00
20487;DHT22;10402;49.012;8.370;2022-11-20T02:58:15;8.20;98.60
20487;DHT22;10402;49.012;8.370;2022-11-20T03:00:40;8.20;98.60
20487;DHT22;10402;49.012;8.370;2022-11-20T03:03:06;8.20;98.60
20487;DHT22;10402;49.012;8.370;2022-11-20T03:05:31;8.20;98.70
20487;DHT22;10402;49.012;8.370;2022-11-20T03:07:57;8.20;98.70
20487;DHT22;10402;49.012;8.370;2022-11-20T03:10:23;8.20;98.60
20487;DHT22;10402;49.012;8.370;2022-11-20T03:12:53;8.30;98.70
20487;DHT22;10402;49.012;8.370;2022-11-20T03:15:19;8.30;98.70
20487;DHT22;10402;49.012;8.370;2022-11-20T03:17:45;8.30;98.70
20487;DHT22;10402;49.012;8.370;2022-11-20T03:20:10;8.30;98.70
20487;DHT22;10402;49.012;8.370;2022-11-20T03:22:36;8.30;98.70
20487;DHT22;10402;49.012;8.370;2022-11-20T03:25:02;8.30;98.70
20487;DHT22;10402;49.012;8.370;2022-11-20T03:27:32;8.30;98.70
20487;DHT22;10402;49.012;8.370;2022-11-20T03:30:07;8.30;98.70
20487;DHT22;10402;49.012;8.370;2022-11-20T03:32:33;8.30;98.70
20487;DHT22;10402;49.012;8.370;2022-11-20T03:34:58;8.30;98.70
20487;DHT22;10402;49.012;8.370;2022-11-20T03:37:24;8.30;98.70
20487;DHT22;10402;49.012;8.370;2022-11-20T03:39:50;8.30;98.60
20487;DHT22;10402;49.012;8.370;2022-11-20T03:42:15;8.30;98.70
20487;DHT22;10402;49.012;8.370;2022-11-20T03:44:59;8.40;98.60
20487;DHT22;10402;49.012;8.370;2022-11-20T03:47:25;8.40;98.60
20487;DHT22;10402;49.012;8.370;2022-11-20T03:49:50;8.40;98.90
20487;DHT22;10402;49.012;8.370;2022-11-20T03:52:16;8.40;98.60
20487;DHT22;10402;49.012;8.370;2022-11-20T03:54:41;8.40;98.60
20487;DHT22;10402;49.012;8.370;2022-11-20T03:57:07;8.40;98.60
20487;DHT22;10402;49.012;8.370;2022-11-20T03:59:32;8.40;98.50
20487;DHT22;10402;49.012;8.370;2022-11-20T04:01:58;8.40;98.40
20487;DHT22;10402;49.012;8.370;2022-11-20T04:04:23;8.50;98.40
20487;DHT22;10402;49.012;8.370;2022-11-20T04:06:49;8.50;98.40
20487;DHT22;10402;49.012;8.370;2022-11-20T04:09:14;8.50;98.40
20487;DHT22;10402;49.012;8.370;2022-11-20T04:11:41;8.50;98.30
20487;DHT22;10402;49.012;8.370;2022-11-20T04:14:13;8.50;98.30
20487;DHT22;10402;49.012;8.370;2022-11-20T04:16:39;8.50;98.20
20487;DHT22;10402;49.012;8.370;2022-11-20T04:19:06;8.50;98.20
20487;DHT22;10402;49.012;8.370;2022-11-20T04:21:32;8.50;98.20
20487;DHT22;10402;49.012;8.370;2022-11-20T04:23:58;8.40;98.20
20487;DHT22;10402;49.012;8.370;2022-11-20T04:26:26;8.40;98.20
20487;DHT22;10402;49.012;8.370;2022-11-20T04:28:52;8.50;98.20
20487;DHT22;10402;49.012;8.370;2022-11-20T04:31:20;8.50;98.20
20487;DHT22;10402;49.012;8.370;2022-11-20T04:33:46;8.50;98.20
20487;DHT22;10402;49.012;8.370;2022-11-20T04:36:20;8.50;98.20
20487;DHT22;10402;49.012;8.370;2022-11-20T04:38:50;8.50;98.20
20487;DHT22;10402;49.012;8.370;2022-11-20T04:41:18;8.50;98.20
20487;DHT22;10402;49.012;8.370;2022-11-20T04:43:48;8.50;98.20
20487;DHT22;10402;49.012;8.370;2022-11-20T04:46:14;8.50;98.20
20487;DHT22;10402;49.012;8.370;2022-11-20T04:48:39;8.50;98.20
20487;DHT22;10402;49.012;8.370;2022-11-20T04:51:05;8.50;98.20
20487;DHT22;10402;49.012;8.370;2022-11-20T04:53:31;8.50;98.20
20487;DHT22;10402;49.012;8.370;2022-11-20T04:56:05;8.50;98.20
20487;DHT22;10402;49.012;8.370;2022-11-20T04:58:31;8.50;98.20
20487;DHT22;10402;49.012;8.370;2022-11-20T05:01:03;8.50;98.20
20487;DHT22;10402;49.012;8.370;2022-11-20T05:03:29;8.50;98.20
20487;DHT22;10402;49.012;8.370;2022-11-20T05:05:55;8.50;98.10
20487;DHT22;10402;49.012;8.370;2022-11-20T05:08:20;8.50;98.10
20487;DHT22;10402;49.012;8.370;2022-11-20T05:10:46;8.50;98.10
20487;DHT22;10402;49.012;8.370;2022-11-20T05:13:12;8.50;98.50
20487;DHT22;10402;49.012;8.370;2022-11-20T05:15:37;8.50;98.10
20487;DHT22;10402;49.012;8.370;2022-11-20T05:18:03;8.50;98.10
20487;DHT22;10402;49.012;8.370;2022-11-20T05:20:28;8.50;98.00
20487;DHT22;10402;49.012;8.370;2022-11-20T05:22:57;8.50;98.00
20487;DHT22;10402;49.012;8.370;2022-11-20T05:25:22;8.50;98.10
20487;DHT22;10402;49.012;8.370;2022-11-20T05:27:48;8.50;98.30
20487;DHT22;10402;49.012;8.370;2022-11-20T05:30:14;8.50;98.00
20487;DHT22;10402;49.012;8.370;2022-11-20T05:32:39;8.50;98.00
20487;DHT22;10402;49.012;8.370;2022-11-20T05:35:05;8.50;97.90
20487;DHT22;10402;49.012;8.370;2022-11-20T05:37:31;8.50;98.00
20487;DHT22;10402;49.012;8.370;2022-11-20T05:39:56;8.50;98.00
20487;DHT22;10402;49.012;8.370;2022-11-20T05:42:22;8.50;98.00
20487;DHT22;10402;49.012;8.370;2022-11-20T05:45:00;8.50;98.00
20487;DHT22;10402;49.012;8.370;2022-11-20T05:47:27;8.50;98.00
20487;DHT22;10402;49.012;8.370;2022-11-20T05:49:53;8.50;98.00
20487;DHT22;10402;49.012;8.370;2022-11-20T05:52:19;8.50;98.00
20487;DHT22;10402;49.012;8.370;2022-11-20T05:54:44;8.50;98.00
20487;DHT22;10402;49.012;8.370;2022-11-20T05:57:10;8.60;98.00
20487;DHT22;10402;49.012;8.370;2022-11-20T05:59:35;8.60;97.90
20487;DHT22;10402;49.012;8.370;2022-11-20T06:02:01;8.60;97.80
20487;DHT22;10402;49.012;8.370;2022-11-20T06:04:26;8.60;97.80
20487;DHT22;10402;49.012;8.370;2022-11-20T06:06:52;8.60;97.80
20487;DHT22;10402;49.012;8.370;2022-11-20T06:09:17;8.50;97.70
20487;DHT22;10402;49.012;8.370;2022-11-20T06:11:43;8.50;97.70
20487;DHT22;10402;49.012;8.370;2022-11-20T06:14:08;8.60;97.80
20487;DHT22;10402;49.012;8.370;2022-11-20T06:16:34;8.50;97.70
20487;DHT22;10402;49.012;8.370;2022-11-20T06:19:00;8.50;97.70
20487;DHT22;10402;49.012;8.370;2022-11-20T06:21:25;8.60;97.80
20487;DHT22;10402;49.012;8.370;2022-11-20T06:23:52;8.50;97.70
20487;DHT22;10402;49.012;8.370;2022-11-20T06:26:24;8.50;97.60
20487;DHT22;10402;49.012;8.370;2022-11-20T06:28:51;8.50;97.60
20487;DHT22;10402;49.012;8.370;2022-11-20T06:31:19;8.50;97.60
20487;DHT22;10402;49.012;8.370;2022-11-20T06:33:45;8.50;97.60
20487;DHT22;10402;49.012;8.370;2022-11-20T06:36:12;8.50;97.60
20487;DHT22;10402;49.012;8.370;2022-11-20T06:38:39;8.50;97.70
20487;DHT22;10402;49.012;8.370;2022-11-20T06:41:06;8.50;97.60
20487;DHT22;10402;49.012;8.370;2022-11-20T06:43:31;8.60;97.60
20487;DHT22;10402;49.012;8.370;2022-11-20T06:45:58;8.60;97.60
20487;DHT22;10402;49.012;8.370;2022-11-20T06:48:26;8.60;97.60
20487;DHT22;10402;49.012;8.370;2022-11-20T06:50:51;8.60;97.50
20487;DHT22;10402;49.012;8.370;2022-11-20T06:53:17;8.60;97.50
20487;DHT22;10402;49.012;8.370;2022-11-20T06:55:47;8.50;97.50
20487;DHT22;10402;49.012;8.370;2022-11-20T06:58:14;8.50;97.50
20487;DHT22;10402;49.012;8.370;2022-11-20T07:00:40;8.50;97.50
20487;DHT22;10402;49.012;8.370;2022-11-20T07:03:07;8.50;97.60
20487;DHT22;10402;49.012;8.370;2022-11-20T07:05:33;8.50;97.60
20487;DHT22;10402;49.012;8.370;2022-11-20T07:07:58;8.60;97.60
20487;DHT22;10402;49.012;8.370;2022-11-20T07:10:25;8.60;97.60
20487;DHT22;10402;49.012;8.370;2022-11-20T07:12:52;8.60;97.60
20487;DHT22;10402;49.012;8.370;2022-11-20T07:15:18;8.50;97.50
20487;DHT22;10402;49.012;8.370;2022-11-20T07:17:44;8.50;97.50
20487;DHT22;10402;49.012;8.370;2022-11-20T07:20:10;8.60;97.60
20487;DHT22;10402;49.012;8.370;2022-11-20T07:22:36;8.50;97.50
20487;DHT22;10402;49.012;8.370;2022-11-20T07:25:03;8.60;97.60
20487;DHT22;10402;49.012;8.370;2022-11-20T07:27:29;8.60;97.60
20487;DHT22;10402;49.012;8.370;2022-11-20T07:29:55;8.60;97.60
20487;DHT22;10402;49.012;8.370;2022-11-20T07:32:21;8.60;97.60
20487;DHT22;10402;49.012;8.370;2022-11-20T07:34:47;8.60;97.60
20487;DHT22;10402;49.012;8.370;2022-11-20T07:37:13;8.60;97.60
20487;DHT22;10402;49.012;8.370;2022-11-20T07:39:38;8.60;97.60
20487;DHT22;10402;49.012;8.370;2022-11-20T07:42:06;8.60;97.70
20487;DHT22;10402;49.012;8.370;2022-11-20T07:44:32;8.60;97.70
20487;DHT22;10402;49.012;8.370;2022-11-20T07:46:57;8.60;97.70
20487;DHT22;10402;49.012;8.370;2022-11-20T07:49:23;8.60;97.70
20487;DHT22;10402;49.012;8.370;2022-11-20T07:51:50;8.60;97.70
20487;DHT22;10402;49.012;8.370;2022-11-20T07:54:16;8.60;97.60
20487;DHT22;10402;49.012;8.370;2022-11-20T07:56:42;8.60;97.70
20487;DHT22;10402;49.012;8.370;2022-11-20T07:59:07;8.60;97.80
20487;DHT22;10402;49.012;8.370;2022-11-20T08:01:33;8.70;97.80
20487;DHT22;10402;49.012;8.370;2022-11-20T08:03:58;8.70;97.80
20487;DHT22;10402;49.012;8.370;2022-11-20T08:06:24;8.70;97.70
20487;DHT22;10402;49.012;8.370;2022-11-20T08:08:50;8.60;97.70
20487;DHT22;10402;49.012;8.370;2022-11-20T08:11:16;8.70;97.80
20487;DHT22;10402;49.012;8.370;2022-11-20T08:14:00;8.70;97.90
20487;DHT22;10402;49.012;8.370;2022-11-20T08:16:46;8.70;97.90
20487;DHT22;10402;49.012;8.370;2022-11-20T08:19:16;8.70;97.80
20487;DHT22;10402;49.012;8.370;2022-11-20T08:21:42;8.60;97.80
20487;DHT22;10402;49.012;8.370;2022-11-20T08:24:09;8.70;97.90
20487;DHT22;10402;49.012;8.370;2022-11-20T08:26:36;8.70;98.00
20487;DHT22;10402;49.012;8.370;2022-11-20T08:29:02;8.70;98.00
20487;DHT22;10402;49.012;8.370;2022-11-20T08:31:29;8.70;98.00
20487;DHT22;10402;49.012;8.370;2022-11-20T08:33:55;8.70;98.00
20487;DHT22;10402;49.012;8.370;2022-11-20T08:36:21;8.70;98.00
20487;DHT22;10402;49.012;8.370;2022-11-20T08:38:48;8.80;98.00
20487;DHT22;10402;49.012;8.370;2022-11-20T08:41:14;8.80;98.00
20487;DHT22;10402;49.012;8.370;2022-11-20T08:43:49;8.80;98.00
20487;DHT22;10402;49.012;8.370;2022-11-20T08:46:16;8.80;98.00
20487;DHT22;10402;49.012;8.370;2022-11-20T08:48:41;8.80;98.00
20487;DHT22;10402;49.012;8.370;2022-11-20T08:51:07;8.80;97.90
20487;DHT22;10402;49.012;8.370;2022-11-20T08:53:33;8.80;98.00
20487;DHT22;10402;49.012;8.370;2022-11-20T08:55:59;8.80;98.00
20487;DHT22;10402;49.012;8.370;2022-11-20T08:58:25;8.80;98.10
20487;DHT22;10402;49.012;8.370;2022-11-20T09:00:51;8.90;98.10
20487;DHT22;10402;49.012;8.370;2022-11-20T09:03:17;8.90;98.10
20487;DHT22;10402;49.012;8.370;2022-11-20T09:05:42;8.90;98.00
20487;DHT22;10402;49.012;8.370;2022-11-20T09:08:08;8.80;98.00
20487;DHT22;10402;49.012;8.370;2022-11-20T09:10:34;8.90;98.10
20487;DHT22;10402;49.012;8.370;2022-11-20T09:13:00;8.90;98.10
20487;DHT22;10402;49.012;8.370;2022-11-20T09:15:26;8.80;98.10
20487;DHT22;10402;49.012;8.370;2022-11-20T09:17:55;8.90;98.20
20487;DHT22;10402;49.012;8.370;2022-11-20T09:20:21;8.90;98.20
20487;DHT22;10402;49.012;8.370;2022-11-20T09:22:47;8.90;98.10
20487;DHT22;10402;49.012;8.370;2022-11-20T09:25:12;8.90;98.10
20487;DHT22;10402;49.012;8.370;2022-11-20T09:27:38;8.90;98.10
20487;DHT22;10402;49.012;8.370;2022-11-20T09:32:33;9.00;98.10
20487;DHT22;10402;49.012;8.370;2022-11-20T09:34:59;9.00;98.10
20487;DHT22;10402;49.012;8.370;2022-11-20T09:37:24;9.00;98.10
20487;DHT22;10402;49.012;8.370;2022-11-20T09:39:50;9.00;98.10
20487;DHT22;10402;49.012;8.370;2022-11-20T09:42:25;9.00;98.10
20487;DHT22;10402;49.012;8.370;2022-11-20T09:45:14;9.00;98.20
20487;DHT22;10402;49.012;8.370;2022-11-20T09:48:24;9.00;98.20
20487;DHT22;10402;49.012;8.370;2022-11-20T09:53:33;9.00;98.20
20487;DHT22;10402;49.012;8.370;2022-11-20T09:56:02;9.00;98.20
20487;DHT22;10402;49.012;8.370;2022-11-20T09:58:34;9.00;98.20
20487;DHT22;10402;49.012;8.370;2022-11-20T10:01:12;9.00;98.20
20487;DHT22;10402;49.012;8.370;2022-11-20T10:03:59;9.00;98.30
20487;DHT22;10402;49.012;8.370;2022-11-20T10:17:22;9.00;98.40
20487;DHT22;10402;49.012;8.370;2022-11-20T10:20:20;9.00;98.40
20487;DHT22;10402;49.012;8.370;2022-11-20T10:25:41;9.10;98.60
20487;DHT22;10402;49.012;8.370;2022-11-20T10:31:03;9.20;98.50
20487;DHT22;10402;49.012;8.370;2022-11-20T10:33:35;9.20;98.60
20487;DHT22;10402;49.012;8.370;2022-11-20T10:36:23;9.20;98.50
20487;DHT22;10402;49.012;8.370;2022-11-20T10:38:59;9.40;98.60
20487;DHT22;10402;49.012;8.370;2022-11-20T10:41:40;9.40;98.60
20487;DHT22;10402;49.012;8.370;2022-11-20T10:44:19;9.60;98.50
20487;DHT22;10402;49.012;8.370;2022-11-20T10:47:04;9.60;98.30
20487;DHT22;10402;49.012;8.370;2022-11-20T10:49:31;9.70;98.30
20487;DHT22;10402;49.012;8.370;2022-11-20T10:52:26;9.60;98.30
20487;DHT22;10402;49.012;8.370;2022-11-20T11:00:18;9.70;98.30
20487;DHT22;10402;49.012;8.370;2022-11-20T11:02:48;9.70;98.30
20487;DHT22;10402;49.012;8.370;2022-11-20T11:05:25;9.70;98.30
20487;DHT22;10402;49.012;8.370;2022-11-20T11:07:56;9.70;98.30
20487;DHT22;10402;49.012;8.370;2022-11-20T11:13:26;9.80;98.20
20487;DHT22;10402;49.012;8.370;2022-11-20T11:15:53;9.90;98.10
20487;DHT22;10402;49.012;8.370;2022-11-20T11:18:30;9.90;98.00
20487;DHT22;10402;49.012;8.370;2022-11-20T11:20:57;10.00;97.40
20487;DHT22;10402;49.012;8.370;2022-11-20T11:23:34;10.00;97.40
20487;DHT22;10402;49.012;8.370;2022-11-20T11:26:03;10.10;97.40
20487;DHT22;10402;49.012;8.370;2022-11-20T11:28:29;10.20;97.20
20487;DHT22;10402;49.012;8.370;2022-11-20T11:30:55;10.30;97.10
20487;DHT22;10402;49.012;8.370;2022-11-20T11:36:16;10.40;96.90
20487;DHT22;10402;49.012;8.370;2022-11-20T11:38:44;10.50;96.70
20487;DHT22;10402;49.012;8.370;2022-11-20T11:41:15;10.50;96.60
20487;DHT22;10402;49.012;8.370;2022-11-20T11:43:57;10.50;96.50
20487;DHT22;10402;49.012;8.370;2022-11-20T11:46:51;10.60;96.40
20487;DHT22;10402;49.012;8.370;2022-11-20T11:49:19;10.50;96.00
20487;DHT22;10402;49.012;8.370;2022-11-20T11:52:17;10.50;96.00
20487;DHT22;10402;49.012;8.370;2022-11-20T11:54:51;10.40;96.00
20487;DHT22;10402;49.012;8.370;2022-11-20T12:00:09;10.30;95.90
20487;DHT22;10402;49.012;8.370;2022-11-20T12:05:19;10.20;96.00
20487;DHT22;10402;49.012;8.370;2022-11-20T12:13:02;10.10;95.90
20487;DHT22;10402;49.012;8.370;2022-11-20T12:15:32;10.10;96.00
20487;DHT22;10402;49.012;8.370;2022-11-20T12:17:58;10.10;96.20
20487;DHT22;10402;49.012;8.370;2022-11-20T12:20:30;10.10;95.60
20487;DHT22;10402;49.012;8.370;2022-11-20T12:23:20;10.20;95.70
20487;DHT22;10402;49.012;8.370;2022-11-20T12:25:52;10.30;95.60
20487;DHT22;10402;49.012;8.370;2022-11-20T12:28:34;10.30;95.40
20487;DHT22;10402;49.012;8.370;2022-11-20T12:31:24;10.40;95.20
20487;DHT22;10402;49.012;8.370;2022-11-20T12:36:44;10.50;94.40
20487;DHT22;10402;49.012;8.370;2022-11-20T12:39:22;10.50;94.40
20487;DHT22;10402;49.012;8.370;2022-11-20T12:48:20;10.60;93.90
20487;DHT22;10402;49.012;8.370;2022-11-20T12:53:41;10.60;93.60
20487;DHT22;10402;49.012;8.370;2022-11-20T12:56:27;10.70;93.30
20487;DHT22;10402;49.012;8.370;2022-11-20T13:04:39;10.70;92.90
20487;DHT22;10402;49.012;8.370;2022-11-20T13:07:13;10.70;92.60
20487;DHT22;10402;49.012;8.370;2022-11-20T13:09:45;10.60;92.30
20487;DHT22;10402;49.012;8.370;2022-11-20T13:17:58;10.50;91.80
20487;DHT22;10402;49.012;8.370;2022-11-20T13:20:24;10.50;91.80
20487;DHT22;10402;49.012;8.370;2022-11-20T13:22:57;10.50;91.60
20487;DHT22;10402;49.012;8.370;2022-11-20T13:27:50;10.50;91.20
20487;DHT22;10402;49.012;8.370;2022-11-20T13:32:53;10.50;90.90
20487;DHT22;10402;49.012;8.370;2022-11-20T13:35:54;10.50;90.40
20487;DHT22;10402;49.012;8.370;2022-11-20T13:38:19;10.40;90.00
20487;DHT22;10402;49.012;8.370;2022-11-20T13:40:57;10.50;90.00
20487;DHT22;10402;49.012;8.370;2022-11-20T13:43:34;10.40;89.60
20487;DHT22;10402;49.012;8.370;2022-11-20T13:46:05;10.50;89.50
20487;DHT22;10402;49.012;8.370;2022-11-20T13:48:43;10.50;88.90
20487;DHT22;10402;49.012;8.370;2022-11-20T13:51:46;10.50;88.60
20487;DHT22;10402;49.012;8.370;2022-11-20T13:54:46;10.50;88.40
20487;DHT22;10402;49.012;8.370;2022-11-20T14:00:19;10.40;88.20
20487;DHT22;10402;49.012;8.370;2022-11-20T14:03:08;10.40;88.20
20487;DHT22;10402;49.012;8.370;2022-11-20T14:05:40;10.40;89.00
20487;DHT22;10402;49.012;8.370;2022-11-20T14:08:14;10.40;87.70
20487;DHT22;10402;49.012;8.370;2022-11-20T14:10:41;10.30;87.90
20487;DHT22;10402;49.012;8.370;2022-11-20T14:13:17;10.30;87.60
20487;DHT22;10402;49.012;8.370;2022-11-20T14:15:43;10.30;87.50
20487;DHT22;10402;49.012;8.370;2022-11-20T14:18:19;10.30;87.70
20487;DHT22;10402;49.012;8.370;2022-11-20T14:20:45;10.30;87.80
20487;DHT22;10402;49.012;8.370;2022-11-20T14:23:11;10.20;87.60
20487;DHT22;10402;49.012;8.370;2022-11-20T14:25:42;10.20;87.30
20487;DHT22;10402;49.012;8.370;2022-11-20T14:28:11;10.20;87.30
20487;DHT22;10402;49.012;8.370;2022-11-20T14:30:46;10.20;87.30
20487;DHT22;10402;49.012;8.370;2022-11-20T14:33:13;10.20;87.50
20487;DHT22;10402;49.012;8.370;2022-11-20T14:35:48;10.20;87.40
20487;DHT22;10402;49.012;8.370;2022-11-20T14:38:16;10.20;87.60
20487;DHT22;10402;49.012;8.370;2022-11-20T14:40:42;10.20;87.50
20487;DHT22;10402;49.012;8.370;2022-11-20T14:43:23;10.20;87.60
20487;DHT22;10402;49.012;8.370;2022-11-20T14:45:58;10.20;87.60
20487;DHT22;10402;49.012;8.370;2022-11-20T14:48:37;10.10;87.40
20487;DHT22;10402;49.012;8.370;2022-11-20T14:51:03;10.10;87.30
20487;DHT22;10402;49.012;8.370;2022-11-20T14:53:29;10.20;87.30
20487;DHT22;10402;49.012;8.370;2022-11-20T14:56:00;10.10;87.10
20487;DHT22;10402;49.012;8.370;2022-11-20T14:58:28;10.10;86.80
20487;DHT22;10402;49.012;8.370;2022-11-20T15:00:56;10.10;86.90
20487;DHT22;10402;49.012;8.370;2022-11-20T15:03:22;10.10;87.00
20487;DHT22;10402;49.012;8.370;2022-11-20T15:05:49;10.10;86.90
20487;DHT22;10402;49.012;8.370;2022-11-20T15:08:15;10.10;87.00
20487;DHT22;10402;49.012;8.370;2022-11-20T15:10:46;10.10;87.00
20487;DHT22;10402;49.012;8.370;2022-11-20T15:13:19;10.10;87.10
20487;DHT22;10402;49.012;8.370;2022-11-20T15:15:50;10.00;87.00
20487;DHT22;10402;49.012;8.370;2022-11-20T15:18:19;10.00;87.10
20487;DHT22;10402;49.012;8.370;2022-11-20T15:20:46;10.00;87.00
20487;DHT22;10402;49.012;8.370;2022-11-20T15:23:13;10.00;86.90
20487;DHT22;10402;49.012;8.370;2022-11-20T15:25:39;10.00;86.70
20487;DHT22;10402;49.012;8.370;2022-11-20T15:28:15;10.00;87.70
20487;DHT22;10402;49.012;8.370;2022-11-20T15:30:41;9.90;88.10
20487;DHT22;10402;49.012;8.370;2022-11-20T15:33:08;10.00;87.00
20487;DHT22;10402;49.012;8.370;2022-11-20T15:35:34;10.00;87.10
20487;DHT22;10402;49.012;8.370;2022-11-20T15:38:00;10.00;87.00
20487;DHT22;10402;49.012;8.370;2022-11-20T15:40:25;10.00;86.90
20487;DHT22;10402;49.012;8.370;2022-11-20T15:42:51;10.00;86.80
20487;DHT22;10402;49.012;8.370;2022-11-20T15:45:38;10.00;86.80
20487;DHT22;10402;49.012;8.370;2022-11-20T15:48:05;10.00;86.50
20487;DHT22;10402;49.012;8.370;2022-11-20T15:50:38;10.00;86.50
20487;DHT22;10402;49.012;8.370;2022-11-20T15:53:03;10.00;86.60
20487;DHT22;10402;49.012;8.370;2022-11-20T15:55:30;9.90;87.70
20487;DHT22;10402;49.012;8.370;2022-11-20T15:57:56;9.90;87.80
20487;DHT22;10402;49.012;8.370;2022-11-20T16:00:22;9.90;87.90
20487;DHT22;10402;49.012;8.370;2022-11-20T16:02:47;9.90;87.80
20487;DHT22;10402;49.012;8.370;2022-11-20T16:05:14;9.90;87.70
20487;DHT22;10402;49.012;8.370;2022-11-20T16:07:40;9.90;87.80
20487;DHT22;10402;49.012;8.370;2022-11-20T16:10:06;9.90;87.60
20487;DHT22;10402;49.012;8.370;2022-11-20T16:12:31;9.90;87.50
20487;DHT22;10402;49.012;8.370;2022-11-20T16:15:15;9.90;87.60
20487;DHT22;10402;49.012;8.370;2022-11-20T16:17:59;9.90;87.50
20487;DHT22;10402;49.012;8.370;2022-11-20T16:20:25;9.90;87.50
20487;DHT22;10402;49.012;8.370;2022-11-20T16:22:50;9.90;87.50
20487;DHT22;10402;49.012;8.370;2022-11-20T16:25:16;9.90;87.50
20487;DHT22;10402;49.012;8.370;2022-11-20T16:27:41;9.90;87.30
20487;DHT22;10402;49.012;8.370;2022-11-20T16:30:07;9.90;87.20
20487;DHT22;10402;49.012;8.370;2022-11-20T16:32:33;9.90;87.20
20487;DHT22;10402;49.012;8.370;2022-11-20T16:35:00;9.80;87.20
20487;DHT22;10402;49.012;8.370;2022-11-20T16:37:25;9.80;87.40
20487;DHT22;10402;49.012;8.370;2022-11-20T16:39:51;9.80;87.30
20487;DHT22;10402;49.012;8.370;2022-11-20T16:42:17;9.80;87.30
20487;DHT22;10402;49.012;8.370;2022-11-20T16:44:45;9.70;87.30
20487;DHT22;10402;49.012;8.370;2022-11-20T16:47:11;9.80;87.30
20487;DHT22;10402;49.012;8.370;2022-11-20T16:49:36;9.80;87.20
20487;DHT22;10402;49.012;8.370;2022-11-20T16:52:02;9.80;87.30
20487;DHT22;10402;49.012;8.370;2022-11-20T16:54:27;9.80;87.20
20487;DHT22;10402;49.012;8.370;2022-11-20T16:56:53;9.80;87.10
20487;DHT22;10402;49.012;8.370;2022-11-20T16:59:18;9.80;87.10
20487;DHT22;10402;49.012;8.370;2022-11-20T17:01:44;9.80;87.20
20487;DHT22;10402;49.012;8.370;2022-11-20T17:04:12;9.80;87.20
20487;DHT22;10402;49.012;8.370;2022-11-20T17:06:40;9.80;87.10
20487;DHT22;10402;49.012;8.370;2022-11-20T17:09:08;9.80;87.10
20487;DHT22;10402;49.012;8.370;2022-11-20T17:11:34;9.80;87.00
20487;DHT22;10402;49.012;8.370;2022-11-20T17:14:00;9.80;87.10
20487;DHT22;10402;49.012;8.370;2022-11-20T17:16:28;9.80;87.00